< < Back
Terminal Aerodrome Forecast


Current Version              Previous Versions:   1  2  3  4  5  6  7  8  9  

Terminal Aerodrome Forecast

695
FTUS42 KFFC 032328
TAFFTY
TAF
KFTY 032328Z 0400/0424 30010G16KT P6SM SCT050
     FM040200 30006KT P6SM SCT070
     FM041400 31010G18KT P6SM SCT045
     FM042000 30012G20KT P6SM BKN070=



Latest METAR

524
SAUS70 KWBC 041500 RRA
MTRFTY
METAR KFTY 041453Z AUTO 31010G17KT 10SM FEW039 17/07 A2982 RMK AO2
SLP094 T01720067 58007


USA.gov is the U.S. government's official web portal to all federal, state and local government web resources and services.